Time;durP1;ratioP1;P1;durP2;ratioP2;P2;SDS_P1;SDS_P2;PMS_P1;PMS_P2;Temp;Humidity;BMP_temperature;BMP_pressure;BME280_temperature;BME280_humidity;BME280_pressure;Samples;Min_cycle;Max_cycle;Signal;HPM_P1;HPM_P2
2022/10/24 00:00:39;;;;;;;;;;;;;;;20.80;53.99;100252.78;5134205;27;19960;-35
2022/10/24 00:03:05;;;;;;;;;;;;;;;20.80;54.09;100244.47;5134969;27;19923;-34
2022/10/24 00:05:30;;;;;;;;;;;;;;;20.79;54.20;100243.66;5132337;27;19932;-34
2022/10/24 00:07:56;;;;;;;;;;;;;;;20.80;54.17;100244.47;5132016;27;19923;-35
2022/10/24 00:10:22;;;;;;;;;;;;;;;20.80;54.03;100253.59;5130869;27;20271;-35
2022/10/24 00:12:47;;;;;;;;;;;;;;;20.79;54.06;100251.94;5134610;27;19927;-34
2022/10/24 00:15:13;;;;;;;;;;;;;;;20.79;54.08;100253.91;5129191;27;19928;-35
2022/10/24 00:17:38;;;;;;;;;;;;;;;20.79;54.25;100257.50;5117546;27;19989;-35
2022/10/24 00:20:05;;;;;;;;;;;;;;;20.80;54.02;100261.06;5132781;27;20298;-35
2022/10/24 00:22:30;;;;;;;;;;;;;;;20.79;54.14;100260.25;5131522;27;19954;-35
2022/10/24 00:24:56;;;;;;;;;;;;;;;20.79;54.10;100257.50;5137178;27;20425;-35
2022/10/24 00:27:21;;;;;;;;;;;;;;;20.79;54.18;100243.66;5134666;27;19996;-35
2022/10/24 00:29:47;;;;;;;;;;;;;;;20.80;54.13;100255.53;5116592;27;19923;-34
2022/10/24 00:32:13;;;;;;;;;;;;;;;20.79;54.08;100259.44;5131929;27;20375;-35
2022/10/24 00:34:39;;;;;;;;;;;;;;;20.80;54.22;100255.53;5140040;27;20014;-35
2022/10/24 00:37:04;;;;;;;;;;;;;;;20.80;54.14;100252.78;5133650;27;19923;-35
2022/10/24 00:39:30;;;;;;;;;;;;;;;20.80;54.14;100244.47;5133900;27;20318;-35
2022/10/24 00:41:57;;;;;;;;;;;;;;;20.79;54.18;100238.13;5131266;27;19942;-35
2022/10/24 00:44:27;;;;;;;;;;;;;;;20.80;54.02;100236.16;5131970;27;20387;-35
2022/10/24 00:46:54;;;;;;;;;;;;;;;20.79;54.20;100232.59;5119979;27;20024;-35
2022/10/24 00:49:21;;;;;;;;;;;;;;;20.79;54.18;100221.50;5137822;27;19958;-35
2022/10/24 00:51:47;;;;;;;;;;;;;;;20.79;54.02;100235.34;5135369;27;19954;-36
2022/10/24 00:54:12;;;;;;;;;;;;;;;20.80;54.08;100219.56;5116238;27;19965;-36
2022/10/24 00:56:39;;;;;;;;;;;;;;;20.79;54.23;100220.69;5112911;27;19924;-35
2022/10/24 00:59:05;;;;;;;;;;;;;;;20.79;54.08;100215.97;5131944;27;20446;-35
2022/10/24 01:01:32;;;;;;;;;;;;;;;20.79;54.00;100215.97;5136577;27;19970;-35
2022/10/24 01:03:58;;;;;;;;;;;;;;;20.80;54.11;100216.78;5116094;27;19928;-35
2022/10/24 01:06:29;;;;;;;;;;;;;;;20.80;53.97;100212.06;5130019;27;19923;-35
2022/10/24 01:08:59;;;;;;;;;;;;;;;20.79;54.12;100213.22;5128107;27;20452;-35
2022/10/24 01:11:36;;;;;;;;;;;;;;;20.79;54.02;100213.22;5131084;27;20369;-35
2022/10/24 01:14:21;;;;;;;;;;;;;;;20.80;54.13;100211.25;5115944;27;20677;-35
2022/10/24 01:16:49;;;;;;;;;;;;;;;20.79;54.14;100218.75;5114324;27;19928;-35
2022/10/24 01:19:22;;;;;;;;;;;;;;;20.79;54.02;100212.41;5136247;27;20202;-34
2022/10/24 01:21:50;;;;;;;;;;;;;;;20.79;54.06;100215.16;5138315;27;19966;-35
2022/10/24 01:24:37;;;;;;;;;;;;;;;20.79;54.06;100207.69;5137612;27;20009;-36
2022/10/24 01:27:07;;;;;;;;;;;;;;;20.79;54.06;100201.31;5135496;27;20002;-35
2022/10/24 01:29:53;;;;;;;;;;;;;;;20.79;54.25;100204.91;5133582;27;19934;-35
2022/10/24 01:32:28;;;;;;;;;;;;;;;20.79;54.17;100210.44;5124006;27;20434;-35
2022/10/24 01:35:03;;;;;;;;;;;;;;;20.79;54.19;100195.78;5114917;27;20022;-35
2022/10/24 01:37:33;;;;;;;;;;;;;;;20.78;54.03;100194.97;5139528;27;20382;-35
2022/10/24 01:40:01;;;;;;;;;;;;;;;20.78;54.04;100194.97;5134355;27;20379;-35
2022/10/24 01:42:27;;;;;;;;;;;;;;;20.79;53.99;100201.31;5137819;27;19927;-35
2022/10/24 01:44:53;;;;;;;;;;;;;;;20.79;54.00;100193.03;5113273;27;20006;-35
2022/10/24 01:47:20;;;;;;;;;;;;;;;20.78;53.97;100180.31;5133635;27;19973;-35
2022/10/24 01:49:48;;;;;;;;;;;;;;;20.78;54.17;100181.13;5115549;27;20418;-35
2022/10/24 01:52:13;;;;;;;;;;;;;;;20.79;54.16;100173.66;5119286;27;19970;-35
2022/10/24 01:54:44;;;;;;;;;;;;;;;20.79;54.10;100180.00;5133301;27;19923;-34
2022/10/24 01:57:10;;;;;;;;;;;;;;;20.78;54.01;100170.06;5121636;27;19929;-35
2022/10/24 01:59:38;;;;;;;;;;;;;;;20.78;54.10;100167.31;5132546;27;19923;-35
2022/10/24 02:02:05;;;;;;;;;;;;;;;20.78;53.88;100158.19;5128475;27;19986;-35
2022/10/24 02:04:31;;;;;;;;;;;;;;;20.79;54.02;100159.81;5130442;27;20378;-35
2022/10/24 02:06:58;;;;;;;;;;;;;;;20.78;54.18;100159.00;5118573;27;20381;-35
2022/10/24 02:09:23;;;;;;;;;;;;;;;20.78;54.10;100152.66;5137193;27;20385;-35
2022/10/24 02:11:49;;;;;;;;;;;;;;;20.79;54.08;100154.28;5136486;27;20322;-35
2022/10/24 02:14:16;;;;;;;;;;;;;;;20.78;54.21;100155.41;5136557;27;19924;-35
2022/10/24 02:16:42;;;;;;;;;;;;;;;20.78;54.05;100145.16;5129840;27;19924;-35
2022/10/24 02:19:07;;;;;;;;;;;;;;;20.78;54.03;100150.69;5135277;27;19927;-35
2022/10/24 02:21:40;;;;;;;;;;;;;;;20.78;53.96;100147.94;5138324;27;19924;-35
2022/10/24 02:24:08;;;;;;;;;;;;;;;20.79;54.04;100157.06;5135942;27;20052;-35
2022/10/24 02:26:37;;;;;;;;;;;;;;;20.78;54.01;100167.31;5137286;27;19993;-35
2022/10/24 02:29:04;;;;;;;;;;;;;;;20.78;54.03;100155.41;5134887;27;20017;-35
2022/10/24 02:31:31;;;;;;;;;;;;;;;20.78;54.08;100156.22;5134969;27;20013;-35
2022/10/24 02:33:56;;;;;;;;;;;;;;;20.79;54.18;100160.63;5135955;27;20415;-35
2022/10/24 02:36:24;;;;;;;;;;;;;;;20.79;54.00;100154.28;5134762;27;19942;-35
2022/10/24 02:38:49;;;;;;;;;;;;;;;20.78;54.04;100153.47;5117148;27;20050;-35
2022/10/24 02:41:18;;;;;;;;;;;;;;;20.78;54.06;100150.69;5120899;27;19962;-35
2022/10/24 02:43:43;;;;;;;;;;;;;;;20.78;54.07;100147.13;5135249;27;20963;-35
2022/10/24 02:46:09;;;;;;;;;;;;;;;20.78;54.02;100147.13;5135496;27;19923;-34
2022/10/24 02:48:35;;;;;;;;;;;;;;;20.78;53.93;100150.69;5132890;27;19931;-35
2022/10/24 02:51:01;;;;;;;;;;;;;;;20.78;54.08;100149.88;5114829;27;20048;-35
2022/10/24 02:53:26;;;;;;;;;;;;;;;20.78;54.16;100149.88;5135906;27;20367;-35
2022/10/24 02:55:52;;;;;;;;;;;;;;;20.78;54.10;100147.94;5132532;27;19982;-34
2022/10/24 02:58:17;;;;;;;;;;;;;;;20.78;54.00;100145.16;5132772;27;19950;-35
2022/10/24 03:00:43;;;;;;;;;;;;;;;20.79;54.05;100145.97;5130645;27;19935;-35
2022/10/24 03:03:09;;;;;;;;;;;;;;;20.78;54.02;100142.41;5135060;27;19934;-35
2022/10/24 03:05:34;;;;;;;;;;;;;;;20.78;54.06;100147.94;5134762;27;19923;-35
2022/10/24 03:08:00;;;;;;;;;;;;;;;20.78;54.08;100149.88;5135857;27;19976;-35
2022/10/24 03:10:25;;;;;;;;;;;;;;;20.78;53.94;100152.66;5132085;27;19927;-35
2022/10/24 03:12:51;;;;;;;;;;;;;;;20.78;54.08;100149.88;5137820;27;20596;-35
2022/10/24 03:15:16;;;;;;;;;;;;;;;20.78;54.15;100153.47;5133879;27;19923;-35
2022/10/24 03:17:42;;;;;;;;;;;;;;;20.78;54.14;100158.19;5139358;27;19927;-35
2022/10/24 03:20:08;;;;;;;;;;;;;;;20.79;54.29;100151.50;5115001;28;19938;-35
2022/10/24 03:22:34;;;;;;;;;;;;;;;20.78;53.96;100158.19;5135550;27;19924;-35
2022/10/24 03:25:02;;;;;;;;;;;;;;;20.78;54.01;100164.53;5133233;27;20366;-35
2022/10/24 03:27:27;;;;;;;;;;;;;;;20.78;53.92;100152.66;5137948;27;19963;-34
2022/10/24 03:29:53;;;;;;;;;;;;;;;20.78;54.12;100163.72;5138172;27;19927;-35
2022/10/24 03:32:18;;;;;;;;;;;;;;;20.77;54.06;100156.56;5133666;27;19930;-35
2022/10/24 03:34:44;;;;;;;;;;;;;;;20.77;54.11;100154.59;5131017;27;19992;-35
2022/10/24 03:37:09;;;;;;;;;;;;;;;20.79;53.84;100154.28;5137912;27;19976;-35
2022/10/24 03:39:35;;;;;;;;;;;;;;;20.79;54.11;100157.06;5138133;27;19942;-35
2022/10/24 03:42:01;;;;;;;;;;;;;;;20.78;53.96;100153.47;5136180;27;19923;-35
2022/10/24 03:44:26;;;;;;;;;;;;;;;20.79;53.99;100157.06;5135049;27;19935;-35
2022/10/24 03:46:52;;;;;;;;;;;;;;;20.78;54.15;100159.00;5134651;27;19923;-35
2022/10/24 03:49:17;;;;;;;;;;;;;;;20.78;54.07;100158.19;5129625;27;20623;-34
2022/10/24 03:51:43;;;;;;;;;;;;;;;20.78;53.97;100150.69;5134991;27;19949;-35
2022/10/24 03:54:09;;;;;;;;;;;;;;;20.78;54.07;100149.88;5137818;27;19923;-35
2022/10/24 03:56:35;;;;;;;;;;;;;;;20.78;54.18;100156.22;5132191;27;20166;-35
2022/10/24 03:59:00;;;;;;;;;;;;;;;20.78;54.12;100158.19;5135080;27;20287;-35
2022/10/24 04:01:26;;;;;;;;;;;;;;;20.78;54.15;100166.50;5134704;27;19931;-35
2022/10/24 04:03:52;;;;;;;;;;;;;;;20.78;54.12;100166.50;5133838;27;19930;-35
2022/10/24 04:06:17;;;;;;;;;;;;;;;20.78;54.13;100166.50;5135577;27;20222;-35
2022/10/24 04:08:43;;;;;;;;;;;;;;;20.78;53.94;100160.97;5133756;27;20364;-35
2022/10/24 04:11:08;;;;;;;;;;;;;;;20.77;54.16;100154.59;5134916;27;19927;-35
2022/10/24 04:13:34;;;;;;;;;;;;;;;20.78;54.01;100153.47;5117336;27;19930;-35
2022/10/24 04:16:00;;;;;;;;;;;;;;;20.78;54.04;100158.19;5134743;27;19923;-35
2022/10/24 04:18:25;;;;;;;;;;;;;;;20.77;54.03;100160.13;5129404;27;20749;-35
2022/10/24 04:20:51;;;;;;;;;;;;;;;20.78;53.93;100152.66;5134265;27;19931;-35
2022/10/24 04:23:16;;;;;;;;;;;;;;;20.78;54.09;100159.00;5140761;27;19923;-35
2022/10/24 04:25:42;;;;;;;;;;;;;;;20.77;54.03;100164.84;5130090;27;19938;-35
2022/10/24 04:28:07;;;;;;;;;;;;;;;20.78;54.17;100150.69;5132945;27;19924;-35
2022/10/24 04:30:33;;;;;;;;;;;;;;;20.77;54.06;100165.66;5132485;27;19930;-34
2022/10/24 04:32:59;;;;;;;;;;;;;;;20.78;54.16;100172.03;5115662;27;19983;-35
2022/10/24 04:35:24;;;;;;;;;;;;;;;20.78;54.04;100174.78;5130028;27;20382;-35
2022/10/24 04:37:50;;;;;;;;;;;;;;;20.78;54.04;100177.56;5116496;27;21058;-35
2022/10/24 04:40:16;;;;;;;;;;;;;;;20.78;53.98;100180.31;5131095;27;20563;-34
2022/10/24 04:42:41;;;;;;;;;;;;;;;20.77;54.19;100176.75;5109823;27;19930;-35
2022/10/24 04:45:07;;;;;;;;;;;;;;;20.46;55.68;100179.28;5128697;27;19923;-34
2022/10/24 04:47:33;;;;;;;;;;;;;;;20.31;56.28;100190.66;5133628;27;19935;-35
2022/10/24 04:49:58;;;;;;;;;;;;;;;20.39;56.51;100189.13;5129834;27;20334;-36
2022/10/24 04:52:24;;;;;;;;;;;;;;;20.58;55.60;100187.09;5128459;27;19938;-36
2022/10/24 04:54:49;;;;;;;;;;;;;;;20.68;55.08;100186.06;5100102;27;19931;-36
2022/10/24 04:57:15;;;;;;;;;;;;;;;20.72;54.84;100192.59;5126779;27;19988;-35
2022/10/24 04:59:40;;;;;;;;;;;;;;;20.74;54.69;100202.25;5129265;27;19931;-36
2022/10/24 05:02:06;;;;;;;;;;;;;;;20.75;54.58;100195.59;5129172;27;19931;-35
2022/10/24 05:04:32;;;;;;;;;;;;;;;20.77;54.59;100192.53;5128447;27;19924;-36
2022/10/24 05:06:57;;;;;;;;;;;;;;;20.78;54.53;100196.94;5131578;27;20515;-36
2022/10/24 05:09:23;;;;;;;;;;;;;;;20.78;54.46;100191.41;5129630;27;19931;-36
2022/10/24 05:11:48;;;;;;;;;;;;;;;20.79;54.57;100199.38;5126942;27;19935;-36
2022/10/24 05:14:14;;;;;;;;;;;;;;;20.80;54.46;100189.94;5128884;27;19923;-37
2022/10/24 05:16:39;;;;;;;;;;;;;;;20.80;54.64;100197.44;5132982;27;20035;-36
2022/10/24 05:19:05;;;;;;;;;;;;;;;20.82;54.50;100197.13;5134585;27;19949;-36
2022/10/24 05:21:32;;;;;;;;;;;;;;;20.82;54.45;100197.94;5109460;27;20271;-36
2022/10/24 05:23:57;;;;;;;;;;;;;;;20.82;54.60;100197.94;5135122;27;19966;-36
2022/10/24 05:26:23;;;;;;;;;;;;;;;20.82;54.50;100203.47;5125042;27;19924;-36
2022/10/24 05:28:48;;;;;;;;;;;;;;;20.65;57.10;100201.34;5111096;28;19931;-37
2022/10/24 05:31:17;;;;;;;;;;;;;;;20.64;56.77;100196.94;5133913;27;19934;-35
2022/10/24 05:33:43;;;;;;;;;;;;;;;20.79;55.64;100195.78;5126973;27;19923;-35
2022/10/24 05:36:09;;;;;;;;;;;;;;;20.84;55.47;100195.69;5122057;27;19938;-36
2022/10/24 05:38:34;;;;;;;;;;;;;;;20.85;55.20;100204.78;5131771;27;19976;-35
2022/10/24 05:41:00;;;;;;;;;;;;;;;20.86;55.17;100198.97;5124101;27;19923;-35
2022/10/24 05:43:25;;;;;;;;;;;;;;;20.86;55.01;100207.28;5132886;27;20216;-35
2022/10/24 05:45:51;;;;;;;;;;;;;;;20.87;55.15;100208.91;5117703;27;20023;-37
2022/10/24 05:48:21;;;;;;;;;;;;;;;20.89;55.19;100214.13;5125928;27;19954;-37
2022/10/24 05:50:47;;;;;;;;;;;;;;;20.90;54.87;100218.56;5122810;27;19924;-37
2022/10/24 05:53:12;;;;;;;;;;;;;;;20.89;55.00;100208.59;5128814;27;19935;-37
2022/10/24 05:55:38;;;;;;;;;;;;;;;20.90;55.05;100216.59;5120152;27;19932;-38
2022/10/24 05:58:04;;;;;;;;;;;;;;;20.90;55.33;100211.06;5118816;27;19967;-38
2022/10/24 06:00:32;;;;;;;;;;;;;;;20.91;55.03;100218.22;5117346;27;19950;-37
2022/10/24 06:02:58;;;;;;;;;;;;;;;20.90;54.90;100222.13;5107253;27;20499;-37
2022/10/24 06:05:24;;;;;;;;;;;;;;;20.91;55.00;100221.00;5108202;27;19982;-37
2022/10/24 06:07:49;;;;;;;;;;;;;;;20.91;54.97;100218.22;5113696;27;20295;-37
2022/10/24 06:10:15;;;;;;;;;;;;;;;20.93;55.33;100215.13;5113950;27;19931;-37
2022/10/24 06:12:40;;;;;;;;;;;;;;;20.92;54.93;100219.84;5113434;27;19934;-38
2022/10/24 06:15:07;;;;;;;;;;;;;;;20.94;55.50;100216.78;5108959;27;19988;-37
2022/10/24 06:17:32;;;;;;;;;;;;;;;20.94;55.26;100225.06;5093660;27;20011;-37
2022/10/24 06:19:58;;;;;;;;;;;;;;;20.93;54.82;100227.03;5099006;27;19931;-37
2022/10/24 06:22:24;;;;;;;;;;;;;;;20.94;55.07;100222.31;5118622;27;20313;-37
2022/10/24 06:24:49;;;;;;;;;;;;;;;20.93;54.86;100232.56;5119197;27;19931;-37
2022/10/24 06:27:15;;;;;;;;;;;;;;;20.94;54.84;100223.16;5099510;27;19923;-37
2022/10/24 06:29:40;;;;;;;;;;;;;;;20.95;54.87;100226.75;5116865;27;19931;-38
2022/10/24 06:32:06;;;;;;;;;;;;;;;20.95;54.80;100237.81;5117471;27;19924;-37
2022/10/24 06:34:31;;;;;;;;;;;;;;;20.97;54.88;100235.53;5114145;27;19931;-37
2022/10/24 06:36:57;;;;;;;;;;;;;;;20.86;55.39;100245.19;5113847;27;19931;-40
2022/10/24 06:39:23;;;;;;;;;;;;;;;20.72;55.87;100247.94;5115865;27;19927;-39
2022/10/24 06:41:48;;;;;;;;;;;;;;;20.89;55.08;100241.78;5110713;27;19928;-37
2022/10/24 06:44:14;;;;;;;;;;;;;;;20.94;55.00;100252.75;5118186;27;19931;-38
2022/10/24 06:46:39;;;;;;;;;;;;;;;20.95;55.02;100252.47;5117923;27;20303;-37
2022/10/24 06:49:05;;;;;;;;;;;;;;;20.97;55.00;100260.44;5120645;27;20237;-37
2022/10/24 06:51:31;;;;;;;;;;;;;;;20.97;54.74;100249.38;5115092;27;19971;-37
2022/10/24 06:53:57;;;;;;;;;;;;;;;20.97;54.84;100252.16;5095776;28;19924;-38
2022/10/24 06:56:22;;;;;;;;;;;;;;;20.98;54.82;100256.53;5114025;27;19935;-37
2022/10/24 06:58:48;;;;;;;;;;;;;;;20.98;54.81;100262.94;5114374;27;19931;-37
2022/10/24 07:01:15;;;;;;;;;;;;;;;21.00;54.83;100260.66;5108578;27;19932;-37
2022/10/24 07:03:40;;;;;;;;;;;;;;;21.02;54.93;100257.56;5082206;27;20208;-37
2022/10/24 07:06:07;;;;;;;;;;;;;;;21.04;54.84;100261.69;5088261;28;20015;-37
2022/10/24 07:08:33;;;;;;;;;;;;;;;21.04;54.76;100258.09;5101271;27;20033;-37
2022/10/24 07:10:58;;;;;;;;;;;;;;;21.03;54.49;100268.34;5103776;27;21251;-37
2022/10/24 07:13:24;;;;;;;;;;;;;;;21.03;54.85;100275.84;5113196;27;19931;-38
2022/10/24 07:15:53;;;;;;;;;;;;;;;21.02;55.03;100272.22;5110425;27;20330;-37
2022/10/24 07:18:18;;;;;;;;;;;;;;;21.02;54.87;100274.19;5109614;27;20345;-37
2022/10/24 07:20:44;;;;;;;;;;;;;;;21.02;54.92;100282.47;5113010;27;19931;-37
2022/10/24 07:23:10;;;;;;;;;;;;;;;21.03;54.69;100281.38;5091121;27;19934;-37
2022/10/24 07:25:36;;;;;;;;;;;;;;;21.02;54.74;100279.72;5110072;27;19939;-37
2022/10/24 07:28:02;;;;;;;;;;;;;;;21.04;54.73;100288.56;5120615;27;19923;-38
2022/10/24 07:30:27;;;;;;;;;;;;;;;21.03;54.72;100281.38;5122744;27;20413;-37
2022/10/24 07:32:54;;;;;;;;;;;;;;;21.03;54.79;100284.97;5116826;27;19923;-37
2022/10/24 07:35:20;;;;;;;;;;;;;;;21.03;54.71;100284.97;5118640;27;20214;-38
2022/10/24 07:37:45;;;;;;;;;;;;;;;21.04;54.74;100288.56;5114605;27;19976;-38
2022/10/24 07:40:11;;;;;;;;;;;;;;;21.05;54.87;100295.72;5091859;27;19931;-37
2022/10/24 07:42:37;;;;;;;;;;;;;;;21.05;54.75;100287.41;5111798;27;19938;-37
2022/10/24 07:45:03;;;;;;;;;;;;;;;21.05;54.74;100299.31;5108993;27;19924;-37
2022/10/24 07:47:28;;;;;;;;;;;;;;;21.06;54.63;100300.13;5112324;27;20210;-37
2022/10/24 07:49:54;;;;;;;;;;;;;;;21.05;54.74;100299.31;5117902;27;19931;-37
2022/10/24 07:52:20;;;;;;;;;;;;;;;21.05;54.63;100299.31;5111733;27;19939;-37
2022/10/24 07:54:45;;;;;;;;;;;;;;;21.07;54.78;100303.69;5111899;27;19942;-37
2022/10/24 07:57:11;;;;;;;;;;;;;;;21.07;54.79;100306.47;5117147;27;19923;-39
2022/10/24 07:59:36;;;;;;;;;;;;;;;21.07;54.81;100303.69;5118045;27;19935;-37
2022/10/24 08:02:09;;;;;;;;;;;;;;;21.07;54.71;100303.69;5109857;27;19980;-37
2022/10/24 08:04:35;;;;;;;;;;;;;;;21.08;54.52;100306.19;5105623;27;20038;-37
2022/10/24 08:07:00;;;;;;;;;;;;;;;21.08;54.70;100308.13;5096284;27;19927;-37
2022/10/24 08:09:26;;;;;;;;;;;;;;;21.10;54.49;100305.88;5115975;27;20330;-38
2022/10/24 08:11:51;;;;;;;;;;;;;;;21.12;54.55;100312.75;5120179;27;19942;-39
2022/10/24 08:14:17;;;;;;;;;;;;;;;21.17;55.11;100309.03;5115008;27;20301;-38
2022/10/24 08:16:42;;;;;;;;;;;;;;;21.19;55.25;100304.00;5123507;27;19931;-38
2022/10/24 08:19:09;;;;;;;;;;;;;;;21.20;55.37;100302.88;5120990;27;20398;-38
2022/10/24 08:21:35;;;;;;;;;;;;;;;21.18;55.15;100305.16;5107573;27;20295;-38
2022/10/24 08:24:01;;;;;;;;;;;;;;;21.17;55.13;100309.03;5114803;27;20350;-38
2022/10/24 08:26:26;;;;;;;;;;;;;;;21.16;54.94;100311.00;5092984;27;20227;-38
2022/10/24 08:28:52;;;;;;;;;;;;;;;21.17;55.19;100306.28;5105037;27;19927;-38
2022/10/24 08:31:18;;;;;;;;;;;;;;;21.14;55.07;100309.66;5115744;27;19927;-38
2022/10/24 08:33:44;;;;;;;;;;;;;;;21.17;54.62;100309.88;5110910;27;19938;-38
2022/10/24 08:36:27;;;;;;;;;;;;;;;21.17;54.59;100309.03;5083986;27;19931;-38
2022/10/24 08:38:53;;;;;;;;;;;;;;;21.16;54.11;100322.06;5097844;27;20264;-38
2022/10/24 08:41:28;;;;;;;;;;;;;;;21.16;54.43;100324.84;5086772;27;20401;-38
2022/10/24 08:43:53;;;;;;;;;;;;;;;21.17;54.60;100317.34;5118373;27;20030;-39
2022/10/24 08:46:27;;;;;;;;;;;;;;;21.16;54.22;100324.84;5113221;27;20106;-38
2022/10/24 08:48:56;;;;;;;;;;;;;;;21.15;54.40;100314.88;5114694;27;20174;-37
2022/10/24 08:51:29;;;;;;;;;;;;;;;21.16;54.46;100322.06;5095603;27;20050;-37
2022/10/24 08:53:55;;;;;;;;;;;;;;;21.15;54.40;100331.50;5110695;27;19962;-38
2022/10/24 08:56:21;;;;;;;;;;;;;;;21.15;54.52;100327.91;5096259;27;20447;-38
2022/10/24 08:58:46;;;;;;;;;;;;;;;21.04;52.27;100327.31;5107410;27;20362;-38
2022/10/24 09:01:13;;;;;;;;;;;;;;;21.13;52.45;100335.72;5114275;27;19983;-38
2022/10/24 09:03:40;;;;;;;;;;;;;;;21.08;51.56;100342.19;5095598;27;20251;-37
2022/10/24 09:06:23;;;;;;;;;;;;;;;21.16;51.82;100335.91;5112068;27;19942;-37
2022/10/24 09:08:52;;;;;;;;;;;;;;;21.17;52.47;100340.31;5097488;27;20371;-37
2022/10/24 09:11:23;;;;;;;;;;;;;;;21.17;52.63;100336.75;5094226;27;19965;-37
2022/10/24 09:13:49;;;;;;;;;;;;;;;21.17;53.04;100336.75;5116707;27;20403;-37
2022/10/24 09:16:16;;;;;;;;;;;;;;;21.18;53.06;100336.41;5112572;27;19927;-37
2022/10/24 09:18:42;;;;;;;;;;;;;;;21.19;53.05;100337.22;5111350;27;19928;-37
2022/10/24 09:21:08;;;;;;;;;;;;;;;21.14;52.27;100340.94;5094855;27;20291;-37
2022/10/24 09:23:34;;;;;;;;;;;;;;;21.21;52.64;100337.75;5118089;27;19943;-37
2022/10/24 09:26:00;;;;;;;;;;;;;;;21.22;53.05;100354.06;5110074;27;20347;-37
2022/10/24 09:28:25;;;;;;;;;;;;;;;21.22;53.40;100348.53;5111487;27;20360;-37
2022/10/24 09:30:51;;;;;;;;;;;;;;;21.22;53.08;100356.00;5107611;27;19927;-37
2022/10/24 09:33:21;;;;;;;;;;;;;;;21.21;52.88;100352.44;5107854;27;19946;-37
2022/10/24 09:35:47;;;;;;;;;;;;;;;21.22;52.79;100353.25;5102433;27;19963;-37
2022/10/24 09:38:32;;;;;;;;;;;;;;;21.22;53.04;100356.81;5101604;27;19980;-38
2022/10/24 09:41:01;;;;;;;;;;;;;;;21.21;53.83;100355.19;5092756;27;20891;-37
2022/10/24 09:46:06;;;;;;;;;;;;;;;21.22;53.10;100354.06;5150687;27;19934;-35
2022/10/24 09:48:52;;;;;;;;;;;;;;;21.23;52.86;100358.47;5114957;27;20037;-38
2022/10/24 09:51:20;;;;;;;;;;;;;;;21.22;53.28;100356.81;5111148;27;20385;-38
2022/10/24 09:54:06;;;;;;;;;;;;;;;21.22;52.92;100367.91;5144798;27;20018;-37
2022/10/24 09:56:34;;;;;;;;;;;;;;;21.22;53.00;100369.84;5117483;27;19955;-38
2022/10/24 09:59:14;;;;;;;;;;;;;;;21.24;53.22;100371.19;5115201;27;20014;-38
2022/10/24 10:01:40;;;;;;;;;;;;;;;21.25;53.29;100377.56;5132473;27;19982;-37
2022/10/24 10:04:09;;;;;;;;;;;;;;;21.22;52.95;100373.44;5129651;27;20007;-37
2022/10/24 10:06:42;;;;;;;;;;;;;;;21.24;53.17;100381.44;5138117;27;19942;-38
2022/10/24 10:09:10;;;;;;;;;;;;;;;21.26;53.44;100390.28;5139516;27;19968;-38
2022/10/24 10:11:36;;;;;;;;;;;;;;;21.25;53.67;100388.63;5114282;27;20024;-36
2022/10/24 10:14:15;;;;;;;;;;;;;;;21.09;52.88;100384.53;5127481;27;19966;-37
2022/10/24 10:16:40;;;;;;;;;;;;;;;21.21;52.90;100393.16;5131953;27;19992;-37
2022/10/24 10:19:14;;;;;;;;;;;;;;;21.22;52.98;100387.28;5125837;27;20440;-37
2022/10/24 10:21:56;;;;;;;;;;;;;;;21.24;53.01;100385.03;5127906;27;20493;-37
2022/10/24 10:24:24;;;;;;;;;;;;;;;21.24;53.08;100393.34;5114304;27;20348;-38
2022/10/24 10:26:50;;;;;;;;;;;;;;;21.23;52.98;100388.91;5107729;27;20468;-37
2022/10/24 10:31:53;;;;;;;;;;;;;;;21.26;52.95;100393.03;5148497;27;19930;-35
2022/10/24 10:34:38;;;;;;;;;;;;;;;21.25;53.21;100402.47;5119679;27;20058;-35
2022/10/24 10:37:24;;;;;;;;;;;;;;;21.24;53.25;100401.66;5121530;27;19972;-34
2022/10/24 10:39:57;;;;;;;;;;;;;;;21.25;53.28;100414.38;5102050;27;19995;-35
2022/10/24 10:42:42;;;;;;;;;;;;;;;21.27;52.88;100419.59;5130318;27;20388;-35
2022/10/24 10:45:14;;;;;;;;;;;;;;;21.27;52.99;100420.41;5101931;27;19941;-38
2022/10/24 10:48:00;;;;;;;;;;;;;;;21.29;52.86;100415.41;5125290;27;20034;-36
2022/10/24 10:50:45;;;;;;;;;;;;;;;21.29;53.09;100420.13;5112696;27;20440;-38
2022/10/24 10:53:20;;;;;;;;;;;;;;;21.28;52.90;100426.78;5097118;27;20018;-37
2022/10/24 10:55:47;;;;;;;;;;;;;;;21.27;52.88;100417.66;5129201;27;20014;-38
2022/10/24 11:01:22;;;;;;;;;;;;;;;21.28;53.56;100435.06;5138614;27;19941;-34
2022/10/24 11:03:49;;;;;;;;;;;;;;;21.29;53.12;100433.97;5121219;27;20055;-35
2022/10/24 11:06:35;;;;;;;;;;;;;;;21.32;53.32;100438.09;5116557;27;20359;-35
2022/10/24 11:09:20;;;;;;;;;;;;;;;21.32;53.05;100432.56;5120095;27;19931;-35
2022/10/24 11:11:47;;;;;;;;;;;;;;;21.32;53.11;100433.38;5139437;27;20366;-35
2022/10/24 11:14:33;;;;;;;;;;;;;;;21.38;52.99;100434.13;5127091;27;20507;-36
2022/10/24 11:17:02;;;;;;;;;;;;;;;21.40;53.67;100431.84;5111930;27;19959;-36
2022/10/24 11:19:31;;;;;;;;;;;;;;;21.40;53.41;100440.97;5115733;27;19962;-35
2022/10/24 11:21:56;;;;;;;;;;;;;;;21.38;53.33;100445.19;5117323;27;20324;-35
2022/10/24 11:24:22;;;;;;;;;;;;;;;21.36;53.37;100447.44;5129085;27;19931;-35
2022/10/24 11:27:07;;;;;;;;;;;;;;;21.35;53.56;100443.03;5121861;27;20008;-39
2022/10/24 11:29:35;;;;;;;;;;;;;;;21.35;53.49;100452.16;5114709;27;20448;-35
2022/10/24 11:32:06;;;;;;;;;;;;;;;21.37;53.19;100454.59;5078774;27;20030;-37
2022/10/24 11:34:37;;;;;;;;;;;;;;;21.35;53.19;100454.09;5103867;27;19959;-38
2022/10/24 11:37:06;;;;;;;;;;;;;;;21.35;53.18;100445.78;5102194;27;19930;-38
2022/10/24 11:39:33;;;;;;;;;;;;;;;21.35;53.04;100460.47;5100816;27;20141;-37
2022/10/24 11:42:19;;;;;;;;;;;;;;;21.36;52.93;100458.50;5103707;27;20085;-37
2022/10/24 11:45:05;;;;;;;;;;;;;;;21.34;53.16;100464.38;5115783;27;19940;-38
2022/10/24 11:47:50;;;;;;;;;;;;;;;21.34;53.40;100466.31;5126321;27;20010;-37
2022/10/24 11:50:18;;;;;;;;;;;;;;;21.34;53.38;100466.31;5122265;27;19971;-37
2022/10/24 11:52:51;;;;;;;;;;;;;;;21.34;53.21;100458.00;5137284;27;19923;-37
2022/10/24 11:55:37;;;;;;;;;;;;;;;21.34;53.70;100458.00;5118956;27;19983;-37
2022/10/24 11:58:06;;;;;;;;;;;;;;;21.34;53.86;100460.78;5117463;27;19931;-37
2022/10/24 12:00:35;;;;;;;;;;;;;;;21.34;53.80;100467.13;5130839;27;19931;-38
2022/10/24 12:03:09;;;;;;;;;;;;;;;21.35;53.73;100470.72;5123775;27;19965;-37
2022/10/24 12:05:44;;;;;;;;;;;;;;;21.34;53.48;100461.59;5123756;27;19931;-39
2022/10/24 12:08:12;;;;;;;;;;;;;;;21.34;53.59;100467.13;5121053;27;19935;-37
2022/10/24 12:10:58;;;;;;;;;;;;;;;21.39;53.46;100472.56;5128858;27;20035;-37
2022/10/24 12:13:43;;;;;;;;;;;;;;;21.40;53.11;100462.31;5101557;28;19967;-37
2022/10/24 12:16:12;;;;;;;;;;;;;;;21.39;53.13;100468.97;5103756;27;19931;-37
2022/10/24 12:18:39;;;;;;;;;;;;;;;21.36;53.21;100462.09;5120299;27;19978;-37
2022/10/24 12:21:06;;;;;;;;;;;;;;;21.39;53.01;100466.22;5123371;27;20039;-38
2022/10/24 12:23:31;;;;;;;;;;;;;;;21.38;53.27;100468.16;5119471;27;21046;-38
2022/10/24 12:26:00;;;;;;;;;;;;;;;21.37;53.54;100457.38;5105785;27;19931;-37
2022/10/24 12:28:26;;;;;;;;;;;;;;;21.36;53.55;100462.09;5120259;27;20196;-37
2022/10/24 12:31:13;;;;;;;;;;;;;;;21.37;53.53;100469.28;5098787;27;19984;-37
2022/10/24 12:33:39;;;;;;;;;;;;;;;21.37;53.49;100455.41;5095964;27;19970;-38
2022/10/24 12:36:04;;;;;;;;;;;;;;;21.40;53.50;100459.53;5112808;27;19931;-37
2022/10/24 12:41:22;;;;;;;;;;;;;;;21.39;53.43;100463.44;5142869;27;20309;-37
2022/10/24 12:43:47;;;;;;;;;;;;;;;21.38;53.64;100464.59;5152234;27;20029;-37
2022/10/24 12:46:15;;;;;;;;;;;;;;;21.38;53.24;100464.59;5153373;27;20428;-37
2022/10/24 12:49:08;;;;;;;;;;;;;;;21.40;53.19;100468.66;5163864;27;19930;-38
2022/10/24 12:51:35;;;;;;;;;;;;;;;21.39;53.03;100466.22;5148236;27;20148;-37